createdAt,value
2022-10-18T00:00:01.585Z,12.20
2022-10-18T00:02:28.039Z,14.00
2022-10-18T00:04:54.434Z,14.70
2022-10-18T00:07:20.817Z,12.90
2022-10-18T00:09:47.182Z,14.90
2022-10-18T00:12:13.668Z,15.80
2022-10-18T00:14:40.065Z,12.20
2022-10-18T00:17:06.456Z,13.20
2022-10-18T00:19:32.851Z,17.80
2022-10-18T00:21:59.245Z,14.20
2022-10-18T00:24:25.891Z,15.30
2022-10-18T00:26:52.264Z,14.90
2022-10-18T00:29:18.650Z,16.50
2022-10-18T00:31:45.319Z,17.20
2022-10-18T00:34:15.410Z,16.00
2022-10-18T00:36:42.765Z,17.60
2022-10-18T00:39:15.184Z,16.30
2022-10-18T00:41:41.591Z,17.00
2022-10-18T00:44:11.031Z,16.70
2022-10-18T00:46:40.591Z,15.80
2022-10-18T00:49:21.300Z,15.70
2022-10-18T00:52:09.622Z,13.40
2022-10-18T00:54:40.651Z,15.40
2022-10-18T00:57:08.711Z,15.00
2022-10-18T00:59:37.091Z,13.50
2022-10-18T01:02:03.619Z,13.10
2022-10-18T01:04:30.155Z,14.00
2022-10-18T01:07:23.062Z,13.20
2022-10-18T01:10:16.862Z,13.50
2022-10-18T01:12:52.466Z,15.30
2022-10-18T01:15:30.552Z,15.40
2022-10-18T01:18:18.871Z,14.20
2022-10-18T01:21:04.526Z,15.40
2022-10-18T01:24:08.879Z,14.70
2022-10-18T01:26:57.614Z,15.00
2022-10-18T01:29:42.914Z,16.70
2022-10-18T01:32:27.301Z,17.10
2022-10-18T01:35:01.315Z,14.40
2022-10-18T01:37:30.139Z,14.00
2022-10-18T01:39:59.504Z,16.50
2022-10-18T01:42:26.476Z,15.00
2022-10-18T01:44:54.469Z,15.70
2022-10-18T01:47:22.048Z,15.30
2022-10-18T01:49:48.393Z,15.10
2022-10-18T01:52:17.826Z,14.60
2022-10-18T01:54:49.157Z,15.00
2022-10-18T01:57:36.478Z,16.10
2022-10-18T02:00:11.448Z,17.20
2022-10-18T02:02:54.228Z,16.00
2022-10-18T02:05:41.468Z,15.60
2022-10-18T02:08:24.199Z,15.60
2022-10-18T02:11:07.377Z,15.10
2022-10-18T02:13:40.478Z,15.80
2022-10-18T02:16:18.957Z,15.80
2022-10-18T02:18:51.976Z,15.60
2022-10-18T02:21:21.332Z,18.00
2022-10-18T02:23:48.791Z,15.40
2022-10-18T02:26:16.236Z,15.80
2022-10-18T02:28:43.790Z,15.40
2022-10-18T02:31:21.754Z,16.50
2022-10-18T02:33:56.997Z,16.20
2022-10-18T02:36:44.377Z,16.70
2022-10-18T02:39:18.139Z,15.30
2022-10-18T02:41:44.804Z,16.70
2022-10-18T02:44:11.333Z,18.60
2022-10-18T02:46:38.615Z,16.00
2022-10-18T02:49:04.989Z,18.10
2022-10-18T02:51:31.606Z,17.90
2022-10-18T02:53:58.098Z,15.00
2022-10-18T02:56:24.635Z,16.70
2022-10-18T02:58:52.275Z,15.70
2022-10-18T03:01:20.188Z,15.10
2022-10-18T03:03:46.811Z,17.80
2022-10-18T03:06:13.219Z,16.40
2022-10-18T03:08:39.678Z,15.60
2022-10-18T03:11:06.195Z,16.20
2022-10-18T03:13:34.213Z,14.60
2022-10-18T03:16:01.082Z,17.50
2022-10-18T03:18:27.714Z,16.00
2022-10-18T03:20:54.085Z,18.30
2022-10-18T03:23:20.480Z,17.30
2022-10-18T03:25:46.851Z,17.80
2022-10-18T03:28:13.240Z,17.90
2022-10-18T03:30:39.677Z,19.00
2022-10-18T03:33:06.867Z,18.50
2022-10-18T03:35:33.324Z,16.80
2022-10-18T03:37:59.851Z,19.00
2022-10-18T03:40:26.363Z,19.70
2022-10-18T03:42:52.773Z,17.90
2022-10-18T03:45:19.145Z,18.40
2022-10-18T03:47:45.581Z,21.90
2022-10-18T03:50:11.980Z,17.10
2022-10-18T03:52:38.422Z,17.40
2022-10-18T03:55:05.304Z,16.00
2022-10-18T03:57:31.671Z,17.00
2022-10-18T03:59:58.052Z,16.30
2022-10-18T04:02:25.999Z,18.60
2022-10-18T04:04:52.608Z,15.30
2022-10-18T04:07:19.139Z,18.20
2022-10-18T04:09:45.505Z,18.60
2022-10-18T04:12:11.911Z,19.60
2022-10-18T04:14:38.267Z,17.30
2022-10-18T04:17:04.783Z,17.40
2022-10-18T04:19:31.173Z,22.80
2022-10-18T04:21:57.562Z,17.00
2022-10-18T04:24:24.115Z,19.90
2022-10-18T04:26:54.206Z,21.70
2022-10-18T04:29:23.136Z,17.10
2022-10-18T04:31:49.632Z,21.80
2022-10-18T04:34:16.108Z,18.00
2022-10-18T04:36:42.468Z,18.60
2022-10-18T04:39:08.880Z,18.50
2022-10-18T04:41:35.342Z,17.30
2022-10-18T04:44:01.797Z,19.40
2022-10-18T04:46:28.181Z,17.50
2022-10-18T04:48:54.641Z,15.50
2022-10-18T04:51:21.059Z,16.60
2022-10-18T04:53:47.435Z,17.80
2022-10-18T04:56:14.046Z,16.80
2022-10-18T04:58:40.451Z,17.40
2022-10-18T05:01:07.643Z,17.30
2022-10-18T05:03:35.183Z,16.10
2022-10-18T05:06:02.675Z,17.10
2022-10-18T05:08:30.062Z,16.50
2022-10-18T05:10:56.463Z,18.70
2022-10-18T05:13:22.968Z,19.00
2022-10-18T05:15:49.399Z,16.90
2022-10-18T05:18:15.825Z,16.10
2022-10-18T05:20:42.244Z,19.80
2022-10-18T05:23:11.603Z,19.10
2022-10-18T05:25:39.842Z,17.30
2022-10-18T05:28:11.055Z,15.40
2022-10-18T05:30:52.992Z,16.50
2022-10-18T05:33:19.361Z,18.50
2022-10-18T05:35:45.724Z,20.00
2022-10-18T05:38:12.550Z,19.20
2022-10-18T05:40:39.534Z,22.90
2022-10-18T05:43:05.896Z,23.70
2022-10-18T05:45:32.255Z,21.10
2022-10-18T05:47:58.618Z,22.10
2022-10-18T05:50:24.991Z,19.80
2022-10-18T05:52:51.355Z,23.50
2022-10-18T05:55:17.738Z,21.80
2022-10-18T05:57:48.985Z,21.80
2022-10-18T06:00:15.392Z,23.90
2022-10-18T06:02:41.764Z,20.50
2022-10-18T06:05:08.396Z,19.80
2022-10-18T06:07:39.470Z,20.70
2022-10-18T06:10:06.452Z,22.30
2022-10-18T06:12:32.870Z,22.10
2022-10-18T06:14:59.210Z,20.30
2022-10-18T06:17:26.822Z,28.40
2022-10-18T06:19:57.175Z,24.60
2022-10-18T06:22:23.622Z,22.80
2022-10-18T06:24:53.756Z,24.40
2022-10-18T06:27:22.945Z,26.10
2022-10-18T06:29:49.352Z,26.40
2022-10-18T06:32:15.943Z,23.70
2022-10-18T06:34:42.310Z,30.00
2022-10-18T06:37:09.322Z,27.60
2022-10-18T06:39:35.730Z,31.80
2022-10-18T06:42:02.102Z,31.00
2022-10-18T06:44:30.786Z,29.80
2022-10-18T06:46:57.208Z,32.90
2022-10-18T06:49:23.822Z,30.40
2022-10-18T06:51:50.292Z,26.50
2022-10-18T06:54:18.444Z,27.80
2022-10-18T06:56:45.246Z,29.10
2022-10-18T06:59:11.680Z,26.80
2022-10-18T07:01:38.157Z,30.70
2022-10-18T07:04:04.963Z,26.30
2022-10-18T07:06:31.499Z,23.60
2022-10-18T07:08:59.191Z,25.90
2022-10-18T07:11:27.561Z,25.40
2022-10-18T07:13:57.037Z,25.80
2022-10-18T07:16:23.379Z,27.20
2022-10-18T07:18:51.481Z,26.80
2022-10-18T07:21:21.092Z,27.50
2022-10-18T07:23:48.319Z,48.50
2022-10-18T07:26:21.935Z,26.00
2022-10-18T07:28:51.555Z,24.00
2022-10-18T07:31:18.324Z,24.60
2022-10-18T07:33:44.728Z,26.00
2022-10-18T07:36:12.342Z,26.20
2022-10-18T07:38:39.750Z,27.30
2022-10-18T07:41:07.591Z,27.20
2022-10-18T07:43:34.913Z,27.40
2022-10-18T07:46:04.133Z,29.00
2022-10-18T07:48:30.941Z,26.10
2022-10-18T07:51:02.119Z,24.90
2022-10-18T07:53:29.599Z,28.20
2022-10-18T07:56:02.356Z,24.00
2022-10-18T07:58:32.613Z,27.60
2022-10-18T08:01:04.154Z,27.70
2022-10-18T08:03:30.875Z,43.00
2022-10-18T08:05:57.267Z,30.70
2022-10-18T08:08:24.767Z,25.10
2022-10-18T08:10:54.059Z,25.40
2022-10-18T08:13:20.884Z,28.00
2022-10-18T08:15:47.906Z,25.90
2022-10-18T08:18:14.635Z,23.30
2022-10-18T08:20:45.477Z,25.80
2022-10-18T08:23:12.330Z,27.40
2022-10-18T08:25:38.791Z,29.90
2022-10-18T08:28:05.358Z,24.50
2022-10-18T08:30:31.729Z,23.90
2022-10-18T08:32:58.217Z,28.50
2022-10-18T08:35:24.592Z,26.00
2022-10-18T08:37:51.321Z,28.80
2022-10-18T08:40:17.729Z,29.60
2022-10-18T08:42:44.092Z,26.50
2022-10-18T08:45:29.729Z,26.20
2022-10-18T08:47:59.232Z,27.70
2022-10-18T08:50:36.774Z,28.00
2022-10-18T08:53:14.943Z,27.30
2022-10-18T08:55:47.100Z,27.00
2022-10-18T08:58:20.958Z,27.60
2022-10-18T09:01:11.676Z,38.00
2022-10-18T09:03:53.055Z,35.80
2022-10-18T09:06:27.000Z,30.20
2022-10-18T09:09:13.288Z,27.40
2022-10-18T09:12:01.864Z,31.10
2022-10-18T09:14:37.848Z,26.50
2022-10-18T09:17:15.966Z,29.70
2022-10-18T09:19:54.838Z,27.40
2022-10-18T09:22:43.404Z,31.70
2022-10-18T09:25:26.303Z,24.00
2022-10-18T09:28:00.975Z,24.10
2022-10-18T09:30:42.929Z,29.10
2022-10-18T09:33:39.345Z,24.50
2022-10-18T09:36:09.224Z,35.10
2022-10-18T09:38:45.129Z,35.50
2022-10-18T09:41:24.783Z,30.10
2022-10-18T09:43:58.047Z,22.50
2022-10-18T09:46:30.421Z,25.90
2022-10-18T09:49:02.646Z,23.10
2022-10-18T09:51:34.847Z,22.20
2022-10-18T09:54:07.101Z,21.20
2022-10-18T09:56:41.725Z,18.80
2022-10-18T09:59:41.451Z,21.00
2022-10-18T10:02:17.304Z,20.60
2022-10-18T10:04:44.112Z,22.30
2022-10-18T10:07:35.271Z,21.20
2022-10-18T10:10:13.360Z,24.40
2022-10-18T10:12:41.028Z,22.60
2022-10-18T10:15:29.517Z,21.20
2022-10-18T10:18:03.611Z,19.90
2022-10-18T10:20:33.001Z,19.30
2022-10-18T10:23:44.742Z,19.60
2022-10-18T10:26:24.709Z,20.20
2022-10-18T10:28:51.721Z,20.50
2022-10-18T10:31:24.523Z,17.10
2022-10-18T10:34:01.073Z,21.60
2022-10-18T10:36:29.489Z,18.30
2022-10-18T10:39:25.885Z,17.80
2022-10-18T10:41:58.608Z,17.80
2022-10-18T10:44:32.635Z,21.90
2022-10-18T10:46:59.921Z,17.00
2022-10-18T10:49:42.939Z,17.80
2022-10-18T10:52:26.896Z,15.20
2022-10-18T10:55:05.830Z,14.30
2022-10-18T10:57:46.262Z,13.70
2022-10-18T11:00:51.539Z,12.80
2022-10-18T11:03:29.381Z,13.30
2022-10-18T11:06:02.276Z,13.80
2022-10-18T11:08:40.097Z,19.20
2022-10-18T11:11:22.847Z,13.60
2022-10-18T11:14:07.198Z,15.00
2022-10-18T11:17:06.927Z,28.30
2022-10-18T11:20:00.002Z,21.20
2022-10-18T11:22:31.538Z,14.50
2022-10-18T11:24:58.188Z,11.90
2022-10-18T11:27:50.586Z,18.20
2022-10-18T11:30:34.521Z,15.60
2022-10-18T11:33:49.476Z,16.10
2022-10-18T11:37:22.562Z,12.40
2022-10-18T11:40:10.301Z,23.30
2022-10-18T11:43:12.843Z,17.40
2022-10-18T11:45:45.974Z,11.90
2022-10-18T11:48:51.431Z,11.80
2022-10-18T11:51:34.027Z,10.90
2022-10-18T11:54:59.628Z,6.00
2022-10-18T11:57:41.697Z,10.10
2022-10-18T12:00:32.947Z,10.80
2022-10-18T12:03:21.571Z,9.30
2022-10-18T12:05:51.156Z,9.70
2022-10-18T12:08:32.803Z,11.70
2022-10-18T12:11:05.819Z,11.30
2022-10-18T12:13:40.993Z,10.10
2022-10-18T12:16:09.416Z,8.80
2022-10-18T12:18:43.560Z,9.20
2022-10-18T12:21:12.738Z,7.10
2022-10-18T12:23:46.778Z,6.70
2022-10-18T12:26:14.094Z,7.90
2022-10-18T12:28:56.676Z,7.00
2022-10-18T12:31:51.240Z,7.60
2022-10-18T12:34:23.867Z,7.90
2022-10-18T12:37:05.416Z,6.40
2022-10-18T12:40:05.507Z,8.00
2022-10-18T12:42:40.136Z,7.90
2022-10-18T12:45:23.057Z,7.00
2022-10-18T12:47:49.773Z,8.00
2022-10-18T12:50:28.359Z,6.60
2022-10-18T12:53:15.589Z,8.70
2022-10-18T12:55:51.889Z,7.30
2022-10-18T12:58:22.489Z,6.40
2022-10-18T13:00:48.960Z,6.50
2022-10-18T13:03:16.657Z,6.50
2022-10-18T13:06:06.660Z,6.20
2022-10-18T13:08:42.098Z,6.70
2022-10-18T13:11:08.579Z,6.60
2022-10-18T13:14:06.006Z,7.40
2022-10-18T13:16:54.674Z,7.40
2022-10-18T13:19:30.763Z,5.40
2022-10-18T13:22:34.832Z,6.20
2022-10-18T13:25:23.175Z,5.50
2022-10-18T13:27:57.516Z,7.10
2022-10-18T13:30:29.044Z,5.10
2022-10-18T13:33:19.458Z,5.50
2022-10-18T13:35:57.127Z,3.90
2022-10-18T13:38:36.309Z,5.00
2022-10-18T13:41:17.765Z,6.80
2022-10-18T13:43:53.525Z,6.30
2022-10-18T13:46:33.079Z,6.10
2022-10-18T13:49:20.740Z,5.30
2022-10-18T13:52:02.313Z,7.40
2022-10-18T13:54:44.945Z,5.10
2022-10-18T13:57:29.828Z,4.00
2022-10-18T14:00:08.336Z,5.30
2022-10-18T14:02:51.950Z,4.20
2022-10-18T14:05:51.041Z,6.10
2022-10-18T14:08:43.190Z,5.00
2022-10-18T14:11:47.414Z,5.80
2022-10-18T14:14:26.657Z,6.90
2022-10-18T14:17:00.972Z,6.80
2022-10-18T14:19:41.717Z,5.40
2022-10-18T14:22:15.569Z,5.40
2022-10-18T14:24:46.773Z,5.10
2022-10-18T14:27:22.895Z,6.30
2022-10-18T14:29:50.963Z,6.60
2022-10-18T14:32:36.177Z,5.40
2022-10-18T14:35:31.048Z,4.80
2022-10-18T14:37:51.822Z,4.40
2022-10-18T14:40:31.675Z,5.90
2022-10-18T14:43:03.680Z,4.20
2022-10-18T14:45:30.242Z,4.80
2022-10-18T14:48:05.869Z,4.10
2022-10-18T14:50:32.338Z,3.50
2022-10-18T14:53:05.790Z,6.30
2022-10-18T14:55:33.188Z,6.10
2022-10-18T14:58:00.145Z,5.60
2022-10-18T15:00:35.017Z,8.50
2022-10-18T15:03:04.998Z,5.60
2022-10-18T15:05:31.517Z,4.70
2022-10-18T15:07:59.998Z,4.50
2022-10-18T15:10:31.091Z,4.70
2022-10-18T15:13:09.895Z,4.70
2022-10-18T15:15:37.806Z,4.80
2022-10-18T15:18:05.371Z,3.00
2022-10-18T15:20:35.147Z,3.70
2022-10-18T15:23:25.273Z,4.00
2022-10-18T15:26:04.953Z,5.10
2022-10-18T15:28:36.595Z,3.70
2022-10-18T15:31:08.901Z,3.80
2022-10-18T15:33:40.219Z,4.80
2022-10-18T15:36:17.975Z,5.70
2022-10-18T15:38:49.893Z,5.20
2022-10-18T15:41:38.616Z,4.70
2022-10-18T15:44:36.040Z,4.90
2022-10-18T15:47:12.081Z,5.70
2022-10-18T15:49:45.634Z,4.40
2022-10-18T15:52:42.593Z,4.50
2022-10-18T15:55:40.424Z,6.60
2022-10-18T15:58:30.689Z,5.40
2022-10-18T16:01:05.571Z,6.90
2022-10-18T16:03:52.358Z,5.90
2022-10-18T16:06:24.563Z,7.60
2022-10-18T16:08:53.032Z,4.20
2022-10-18T16:11:25.004Z,6.40
2022-10-18T16:13:57.998Z,6.00
2022-10-18T16:16:28.757Z,6.50
2022-10-18T16:18:56.057Z,5.90
2022-10-18T16:21:28.743Z,7.60
2022-10-18T16:23:55.680Z,7.10
2022-10-18T16:26:23.636Z,8.70
2022-10-18T16:28:50.567Z,5.20
2022-10-18T16:31:37.298Z,6.00
2022-10-18T16:34:04.576Z,7.90
2022-10-18T16:36:33.333Z,8.40
2022-10-18T16:39:03.702Z,7.80
2022-10-18T16:41:30.154Z,6.60
2022-10-18T16:43:57.149Z,10.00
2022-10-18T16:46:29.023Z,8.20
2022-10-18T16:48:56.095Z,11.30
2022-10-18T16:51:23.447Z,16.50
2022-10-18T16:53:50.256Z,14.10
2022-10-18T16:56:19.164Z,13.50
2022-10-18T16:58:47.001Z,12.50
2022-10-18T17:01:16.417Z,12.30
2022-10-18T17:03:43.707Z,16.30
2022-10-18T17:06:23.725Z,23.40
2022-10-18T17:08:51.954Z,9.70
2022-10-18T17:11:22.769Z,9.00
2022-10-18T17:13:49.314Z,5.80
2022-10-18T17:16:23.696Z,8.50
2022-10-18T17:18:50.964Z,23.90
2022-10-18T17:21:17.475Z,23.50
2022-10-18T17:23:43.903Z,27.60
2022-10-18T17:26:28.323Z,10.20
2022-10-18T17:28:58.449Z,13.40
2022-10-18T17:31:26.537Z,10.90
2022-10-18T17:33:55.262Z,7.80
2022-10-18T17:36:21.824Z,8.80
2022-10-18T17:38:55.732Z,7.70
2022-10-18T17:41:22.302Z,10.00
2022-10-18T17:43:48.848Z,6.50
2022-10-18T17:46:17.664Z,7.90
2022-10-18T17:48:44.172Z,10.10
2022-10-18T17:51:13.988Z,7.40
2022-10-18T17:53:40.515Z,8.90
2022-10-18T17:56:07.787Z,8.00
2022-10-18T17:58:35.235Z,9.40
2022-10-18T18:01:17.150Z,7.60
2022-10-18T18:03:44.354Z,7.30
2022-10-18T18:06:15.663Z,12.20
2022-10-18T18:08:42.127Z,10.80
2022-10-18T18:11:08.581Z,11.30
2022-10-18T18:13:35.074Z,10.50
2022-10-18T18:16:17.344Z,7.40
2022-10-18T18:18:45.184Z,11.00
2022-10-18T18:21:14.823Z,11.80
2022-10-18T18:23:41.498Z,8.70
2022-10-18T18:26:08.065Z,10.20
2022-10-18T18:28:36.248Z,10.90
2022-10-18T18:31:07.540Z,9.80
2022-10-18T18:33:34.949Z,7.70
2022-10-18T18:36:03.204Z,10.20
2022-10-18T18:38:30.220Z,7.60
2022-10-18T18:41:24.070Z,10.00
2022-10-18T18:43:59.242Z,7.90
2022-10-18T18:46:28.041Z,9.00
2022-10-18T18:48:56.531Z,10.70
2022-10-18T18:51:24.692Z,7.60
2022-10-18T18:53:51.886Z,7.80
2022-10-18T18:58:53.296Z,10.40
2022-10-18T19:01:36.101Z,10.00
2022-10-18T19:04:03.796Z,8.60
2022-10-18T19:06:33.556Z,8.30
2022-10-18T19:09:03.257Z,9.40
2022-10-18T19:11:33.281Z,8.10
2022-10-18T19:14:00.924Z,7.30
2022-10-18T19:16:38.460Z,7.40
2022-10-18T19:19:10.862Z,8.70
2022-10-18T19:21:40.555Z,9.70
2022-10-18T19:24:07.945Z,8.80
2022-10-18T19:26:36.700Z,8.60
2022-10-18T19:29:07.112Z,8.50
2022-10-18T19:31:35.881Z,8.80
2022-10-18T19:34:05.127Z,10.30
2022-10-18T19:36:32.116Z,9.40
2022-10-18T19:38:58.829Z,9.90
2022-10-18T19:43:57.572Z,11.10
2022-10-18T19:46:25.063Z,10.50
2022-10-18T19:48:54.036Z,9.40
2022-10-18T19:51:22.941Z,10.70
2022-10-18T19:53:51.977Z,9.30
2022-10-18T19:56:20.861Z,11.90
2022-10-18T19:58:48.142Z,10.40
2022-10-18T20:01:15.750Z,13.50
2022-10-18T20:03:43.307Z,12.00
2022-10-18T20:06:09.886Z,9.20
2022-10-18T20:08:37.509Z,10.40
2022-10-18T20:11:07.162Z,10.30
2022-10-18T20:13:34.702Z,11.90
2022-10-18T20:16:01.781Z,8.50
2022-10-18T20:18:28.278Z,8.90
2022-10-18T20:20:56.929Z,8.70
2022-10-18T20:23:23.406Z,11.50
2022-10-18T20:26:01.824Z,13.00
2022-10-18T20:28:31.782Z,12.60
2022-10-18T20:31:07.269Z,12.40
2022-10-18T20:33:35.361Z,11.90
2022-10-18T20:36:07.305Z,9.20
2022-10-18T20:38:36.192Z,9.40
2022-10-18T20:41:08.271Z,8.40
2022-10-18T20:43:35.200Z,10.20
2022-10-18T20:46:02.895Z,8.30
2022-10-18T20:48:33.732Z,9.20
2022-10-18T20:51:08.869Z,12.20
2022-10-18T20:53:36.645Z,9.60
2022-10-18T20:56:12.147Z,11.90
2022-10-18T20:58:40.268Z,9.80
2022-10-18T21:01:07.849Z,8.60
2022-10-18T21:03:37.268Z,10.20
2022-10-18T21:06:21.696Z,12.60
2022-10-18T21:08:56.386Z,7.40
2022-10-18T21:11:23.188Z,8.10
2022-10-18T21:13:58.777Z,9.90
2022-10-18T21:16:27.429Z,7.30
2022-10-18T21:18:54.136Z,9.80
2022-10-18T21:21:25.720Z,10.50
2022-10-18T21:23:52.744Z,11.50
2022-10-18T21:26:24.557Z,9.40
2022-10-18T21:28:59.991Z,11.20
2022-10-18T21:31:29.173Z,8.30
2022-10-18T21:34:17.395Z,9.60
2022-10-18T21:36:46.100Z,9.30
2022-10-18T21:39:15.598Z,10.50
2022-10-18T21:41:42.732Z,10.20
2022-10-18T21:44:11.161Z,12.90
2022-10-18T21:46:39.527Z,11.30
2022-10-18T21:49:09.713Z,8.90
2022-10-18T21:51:36.826Z,9.70
2022-10-18T21:54:03.528Z,9.60
2022-10-18T21:56:32.840Z,9.50
2022-10-18T21:59:00.852Z,9.90
2022-10-18T22:01:33.391Z,7.00
2022-10-18T22:04:01.902Z,8.80
2022-10-18T22:06:32.160Z,9.20
2022-10-18T22:09:02.332Z,7.30
2022-10-18T22:11:31.974Z,9.50
2022-10-18T22:13:59.191Z,9.00
2022-10-18T22:16:26.374Z,7.50
2022-10-18T22:18:57.006Z,8.70
2022-10-18T22:21:23.960Z,7.80
2022-10-18T22:23:52.372Z,9.30
2022-10-18T22:26:25.008Z,8.40
2022-10-18T22:28:58.128Z,7.50
2022-10-18T22:31:27.663Z,8.30
2022-10-18T22:33:56.916Z,7.10
2022-10-18T22:36:24.249Z,9.70
2022-10-18T22:38:51.134Z,9.60
2022-10-18T22:41:17.884Z,9.60
2022-10-18T22:43:44.917Z,8.30
2022-10-18T22:46:13.348Z,7.40
2022-10-18T22:48:40.142Z,5.50
2022-10-18T22:51:07.760Z,8.30
2022-10-18T22:53:35.168Z,8.10
2022-10-18T22:56:01.957Z,5.20
2022-10-18T22:58:28.732Z,4.60
2022-10-18T23:01:06.654Z,8.20
2022-10-18T23:03:36.435Z,6.70
2022-10-18T23:06:04.027Z,7.80
2022-10-18T23:08:31.180Z,8.40
2022-10-18T23:10:59.515Z,10.00
2022-10-18T23:13:27.575Z,5.40
2022-10-18T23:16:04.466Z,7.20
2022-10-18T23:18:32.919Z,4.10
2022-10-18T23:21:06.644Z,5.40
2022-10-18T23:23:35.753Z,7.40
2022-10-18T23:26:10.802Z,7.20
2022-10-18T23:28:39.817Z,7.10
2022-10-18T23:31:11.824Z,8.10
2022-10-18T23:33:39.679Z,5.60
2022-10-18T23:36:07.774Z,6.30
2022-10-18T23:38:35.058Z,7.60
2022-10-18T23:41:01.683Z,7.70
2022-10-18T23:43:28.389Z,7.00
2022-10-18T23:45:54.894Z,7.50
2022-10-18T23:48:21.344Z,4.90
2022-10-18T23:50:47.859Z,6.20
2022-10-18T23:53:14.474Z,5.20
2022-10-18T23:55:58.010Z,7.60
2022-10-18T23:58:25.345Z,6.50
